Time;durP1;ratioP1;P1;durP2;ratioP2;P2;SDS_P1;SDS_P2;PMS_P1;PMS_P2;Temp;Humidity;BMP_temperature;BMP_pressure;BME280_temperature;BME280_humidity;BME280_pressure;Samples;Min_cycle;Max_cycle;Signal;HPM_P1;HPM_P2
2024/04/08 00:01:18;;;;;;;5.13;1.00;;;;;;;;;;5016715;28;20029;-69
2024/04/08 00:03:44;;;;;;;1.05;0.60;;;;;;;;;;5014974;28;20558;-69
2024/04/08 00:06:10;;;;;;;0.40;0.40;;;;;;;;;;5023458;28;20322;-69
2024/04/08 00:08:36;;;;;;;0.68;0.50;;;;;;;;;;5021246;28;20052;-69
2024/04/08 00:11:07;;;;;;;0.82;0.60;;;;;;;;;;5015788;28;20430;-69
2024/04/08 00:13:37;;;;;;;;;;;;;;;;;;5015522;28;20029;-69
2024/04/08 00:16:03;;;;;;;2.42;0.82;;;;;;;;;;5021864;28;19988;-69
2024/04/08 00:18:29;;;;;;;1.33;0.70;;;;;;;;;;5018633;28;20123;-70
2024/04/08 00:21:04;;;;;;;1.15;0.77;;;;;;;;;;5018129;28;20098;-69
2024/04/08 00:23:30;;;;;;;2.08;0.73;;;;;;;;;;5012958;28;20095;-70
2024/04/08 00:25:56;;;;;;;2.35;1.02;;;;;;;;;;5010082;28;20113;-69
2024/04/08 00:28:21;;;;;;;3.45;0.88;;;;;;;;;;5013210;28;20074;-69
2024/04/08 00:30:47;;;;;;;1.73;0.88;;;;;;;;;;5013802;28;20026;-69
2024/04/08 00:33:13;;;;;;;3.55;0.77;;;;;;;;;;5016895;28;20126;-69
2024/04/08 00:35:39;;;;;;;2.13;0.80;;;;;;;;;;5020341;28;20021;-70
2024/04/08 00:38:05;;;;;;;1.15;0.60;;;;;;;;;;5014020;28;20088;-69
2024/04/08 00:40:38;;;;;;;1.42;0.90;;;;;;;;;;5013225;28;20045;-69
2024/04/08 00:43:07;;;;;;;1.35;0.65;;;;;;;;;;5011763;28;20426;-69
2024/04/08 00:45:33;;;;;;;1.08;0.50;;;;;;;;;;5023219;28;20136;-69
2024/04/08 00:47:59;;;;;;;5.25;0.80;;;;;;;;;;5014053;28;20032;-70
2024/04/08 00:50:25;;;;;;;1.42;0.88;;;;;;;;;;5021352;28;20430;-69
2024/04/08 00:52:52;;;;;;;1.85;0.60;;;;;;;;;;5016458;28;20103;-70
2024/04/08 00:55:18;;;;;;;1.08;0.65;;;;;;;;;;5018987;28;20034;-70
2024/04/08 00:57:45;;;;;;;2.72;0.75;;;;;;;;;;5012650;28;20289;-70
2024/04/08 01:00:12;;;;;;;0.82;0.40;;;;;;;;;;5016931;28;20042;-70
2024/04/08 01:02:38;;;;;;;2.22;0.88;;;;;;;;;;5021908;28;20042;-69
2024/04/08 01:05:05;;;;;;;1.58;0.82;;;;;;;;;;5024074;28;20187;-69
2024/04/08 01:07:32;;;;;;;1.05;0.52;;;;;;;;;;5016844;28;20025;-69
2024/04/08 01:09:58;;;;;;;1.02;0.77;;;;;;;;;;5020886;28;20051;-70
2024/04/08 01:12:23;;;;;;;4.03;0.63;;;;;;;;;;5015938;28;20121;-69
2024/04/08 01:14:49;;;;;;;1.30;0.63;;;;;;;;;;5024210;28;20061;-69
2024/04/08 01:17:16;;;;;;;1.13;0.77;;;;;;;;;;5020008;28;20160;-70
2024/04/08 01:19:42;;;;;;;1.50;0.70;;;;;;;;;;5016502;28;20030;-69
2024/04/08 01:22:10;;;;;;;1.13;0.60;;;;;;;;;;5020623;28;20359;-69
2024/04/08 01:24:36;;;;;;;2.53;0.77;;;;;;;;;;5021285;28;20030;-70
2024/04/08 01:27:02;;;;;;;1.17;0.50;;;;;;;;;;5017384;28;20040;-70
2024/04/08 01:29:28;;;;;;;0.80;0.68;;;;;;;;;;5016113;28;20025;-69
2024/04/08 01:31:54;;;;;;;0.73;0.70;;;;;;;;;;5016805;28;20064;-70
2024/04/08 01:34:20;;;;;;;2.83;0.60;;;;;;;;;;5022879;28;20449;-70
2024/04/08 01:36:46;;;;;;;0.85;0.65;;;;;;;;;;5021860;28;20087;-70
2024/04/08 01:39:12;;;;;;;0.57;0.40;;;;;;;;;;5019897;28;20045;-69
2024/04/08 01:41:38;;;;;;;1.25;0.65;;;;;;;;;;5019772;28;20049;-70
2024/04/08 01:44:04;;;;;;;0.80;0.50;;;;;;;;;;5021485;28;20041;-69
2024/04/08 01:46:30;;;;;;;1.00;0.50;;;;;;;;;;5021765;28;20022;-70
2024/04/08 01:48:55;;;;;;;1.73;0.80;;;;;;;;;;5020800;28;20195;-70
2024/04/08 01:51:21;;;;;;;1.27;0.60;;;;;;;;;;5017243;28;20045;-70
2024/04/08 01:53:47;;;;;;;2.20;0.82;;;;;;;;;;5014506;28;20044;-70
2024/04/08 01:56:13;;;;;;;1.75;0.82;;;;;;;;;;5013190;28;20437;-70
2024/04/08 01:58:39;;;;;;;0.98;0.68;;;;;;;;;;5018828;28;20045;-70
2024/04/08 02:01:05;;;;;;;1.30;0.70;;;;;;;;;;5010977;28;20167;-70
2024/04/08 02:03:31;;;;;;;1.35;0.70;;;;;;;;;;5013247;28;20065;-70
2024/04/08 02:05:57;;;;;;;0.98;0.60;;;;;;;;;;5017500;28;20049;-69
2024/04/08 02:08:23;;;;;;;1.83;0.60;;;;;;;;;;5022091;28;20033;-70
2024/04/08 02:10:51;;;;;;;2.25;0.70;;;;;;;;;;5016897;28;20465;-70
2024/04/08 02:13:16;;;;;;;1.20;0.70;;;;;;;;;;5010757;28;20026;-70
2024/04/08 02:15:42;;;;;;;3.00;0.90;;;;;;;;;;5017962;28;20029;-70
2024/04/08 02:18:09;;;;;;;1.30;0.57;;;;;;;;;;5017618;28;20501;-69
2024/04/08 02:20:38;;;;;;;1.02;0.75;;;;;;;;;;5010502;28;20088;-69
2024/04/08 02:23:04;;;;;;;1.92;0.75;;;;;;;;;;5013522;28;20062;-69
2024/04/08 02:25:30;;;;;;;1.48;0.80;;;;;;;;;;5016586;28;20484;-69
2024/04/08 02:27:57;;;;;;;2.25;0.73;;;;;;;;;;5008775;28;20389;-70
2024/04/08 02:30:23;;;;;;;2.97;0.90;;;;;;;;;;5017651;28;20327;-70
2024/04/08 02:32:49;;;;;;;2.65;0.88;;;;;;;;;;5013237;28;20482;-69
2024/04/08 02:35:16;;;;;;;1.42;1.00;;;;;;;;;;5032651;28;20120;-69
2024/04/08 02:37:43;;;;;;;1.02;0.52;;;;;;;;;;5019699;28;20025;-69
2024/04/08 02:40:10;;;;;;;0.60;0.45;;;;;;;;;;5016173;28;20053;-70
2024/04/08 02:42:36;;;;;;;1.30;0.68;;;;;;;;;;5019887;28;20495;-69
2024/04/08 02:45:03;;;;;;;1.02;0.70;;;;;;;;;;5018217;28;20034;-70
2024/04/08 02:47:29;;;;;;;1.83;0.80;;;;;;;;;;5011713;28;20044;-69
2024/04/08 02:49:55;;;;;;;2.05;0.80;;;;;;;;;;5019365;28;20113;-69
2024/04/08 02:52:21;;;;;;;1.52;0.60;;;;;;;;;;5019788;28;20033;-69
2024/04/08 02:54:46;;;;;;;3.03;0.77;;;;;;;;;;5019852;28;20057;-69
2024/04/08 02:57:12;;;;;;;1.90;0.90;;;;;;;;;;5016859;28;20112;-69
2024/04/08 02:59:38;;;;;;;2.72;0.90;;;;;;;;;;5018860;28;20490;-69
2024/04/08 03:02:04;;;;;;;1.30;0.60;;;;;;;;;;5016048;28;20025;-69
2024/04/08 03:04:31;;;;;;;1.25;0.75;;;;;;;;;;5017432;28;20170;-70
2024/04/08 03:06:57;;;;;;;1.15;0.77;;;;;;;;;;5016701;28;20052;-69
2024/04/08 03:09:23;;;;;;;1.75;0.70;;;;;;;;;;5014990;28;20446;-70
2024/04/08 03:11:49;;;;;;;2.70;0.93;;;;;;;;;;5015374;28;20142;-70
2024/04/08 03:14:15;;;;;;;1.83;1.00;;;;;;;;;;5017165;28;20033;-70
2024/04/08 03:16:43;;;;;;;1.88;0.95;;;;;;;;;;5017252;28;20033;-70
2024/04/08 03:19:09;;;;;;;1.88;0.95;;;;;;;;;;5013244;28;20022;-69
2024/04/08 03:21:35;;;;;;;2.33;1.23;;;;;;;;;;5012367;28;20053;-70
2024/04/08 03:24:02;;;;;;;3.35;0.90;;;;;;;;;;5016573;28;20030;-69
2024/04/08 03:26:28;;;;;;;1.55;0.90;;;;;;;;;;5021381;28;20029;-69
2024/04/08 03:28:54;;;;;;;2.28;1.02;;;;;;;;;;5019207;28;20029;-69
2024/04/08 03:31:20;;;;;;;2.33;0.98;;;;;;;;;;5020349;28;20022;-69
2024/04/08 03:33:46;;;;;;;2.05;0.82;;;;;;;;;;5016185;28;20120;-69
2024/04/08 03:36:16;;;;;;;2.58;0.98;;;;;;;;;;5023243;28;20034;-69
2024/04/08 03:38:42;;;;;;;1.50;0.87;;;;;;;;;;5018569;28;20492;-69
2024/04/08 03:41:08;;;;;;;1.70;0.90;;;;;;;;;;5013433;28;20276;-69
2024/04/08 03:43:34;;;;;;;3.10;1.23;;;;;;;;;;5017909;28;20107;-69
2024/04/08 03:46:00;;;;;;;1.70;0.95;;;;;;;;;;5012499;28;20041;-69
2024/04/08 03:48:26;;;;;;;6.07;1.08;;;;;;;;;;5013982;28;20030;-70
2024/04/08 03:50:52;;;;;;;2.22;1.00;;;;;;;;;;5012109;28;20457;-69
2024/04/08 03:53:19;;;;;;;1.40;0.80;;;;;;;;;;5018823;28;20121;-69
2024/04/08 03:55:45;;;;;;;1.98;0.90;;;;;;;;;;5016936;28;20034;-70
2024/04/08 03:58:11;;;;;;;1.08;0.75;;;;;;;;;;5010417;28;20069;-69
2024/04/08 04:00:36;;;;;;;4.05;1.10;;;;;;;;;;5016298;28;20424;-69
2024/04/08 04:03:02;;;;;;;2.17;1.02;;;;;;;;;;5020023;28;20145;-70
2024/04/08 04:05:28;;;;;;;2.35;1.05;;;;;;;;;;5020288;28;20097;-69
2024/04/08 04:07:56;;;;;;;1.33;0.80;;;;;;;;;;5017291;28;20056;-69
2024/04/08 04:10:22;;;;;;;1.73;0.90;;;;;;;;;;5011321;28;20076;-70
2024/04/08 04:12:48;;;;;;;2.05;1.00;;;;;;;;;;5009632;28;20057;-72
2024/04/08 04:15:14;;;;;;;1.35;0.90;;;;;;;;;;5012941;28;20164;-70
2024/04/08 04:17:40;;;;;;;2.60;0.95;;;;;;;;;;5022964;28;20438;-69
2024/04/08 04:20:09;;;;;;;1.35;0.85;;;;;;;;;;5017224;28;20140;-70
2024/04/08 04:22:35;;;;;;;2.25;1.30;;;;;;;;;;5012694;28;20022;-69
2024/04/08 04:25:01;;;;;;;3.67;0.90;;;;;;;;;;5013902;28;20030;-70
2024/04/08 04:27:27;;;;;;;1.30;0.90;;;;;;;;;;5022144;28;20044;-70
2024/04/08 04:29:53;;;;;;;2.17;0.95;;;;;;;;;;5018768;28;20370;-68
2024/04/08 04:32:19;;;;;;;2.58;1.17;;;;;;;;;;5017817;28;20064;-67
2024/04/08 04:34:45;;;;;;;2.53;1.30;;;;;;;;;;5016775;28;20033;-67
2024/04/08 04:37:11;;;;;;;2.42;1.50;;;;;;;;;;5013962;28;20042;-67
2024/04/08 04:39:37;;;;;;;3.60;1.77;;;;;;;;;;5015777;28;20182;-67
2024/04/08 04:42:03;;;;;;;3.30;1.83;;;;;;;;;;5008445;28;20425;-67
2024/04/08 04:44:29;;;;;;;2.67;1.42;;;;;;;;;;5007255;28;20045;-67
2024/04/08 04:46:55;;;;;;;1.52;1.10;;;;;;;;;;5014878;28;20077;-67
2024/04/08 04:49:21;;;;;;;3.50;1.52;;;;;;;;;;5018587;28;20104;-67
2024/04/08 04:51:47;;;;;;;3.05;1.23;;;;;;;;;;5017650;28;20033;-67
2024/04/08 04:54:13;;;;;;;3.85;1.83;;;;;;;;;;5011757;28;20045;-67
2024/04/08 04:56:39;;;;;;;1.98;1.20;;;;;;;;;;5017192;28;20118;-67
2024/04/08 04:59:05;;;;;;;2.85;1.38;;;;;;;;;;5012953;28;20428;-69
2024/04/08 05:01:30;;;;;;;2.78;1.45;;;;;;;;;;5024866;28;20040;-67
2024/04/08 05:03:56;;;;;;;4.68;1.55;;;;;;;;;;5013656;28;20050;-67
2024/04/08 05:06:22;;;;;;;3.58;1.42;;;;;;;;;;5014097;28;20435;-67
2024/04/08 05:08:49;;;;;;;5.93;1.77;;;;;;;;;;5018921;28;20091;-67
2024/04/08 05:11:15;;;;;;;3.17;1.55;;;;;;;;;;5018997;28;20108;-67
2024/04/08 05:13:41;;;;;;;2.78;1.77;;;;;;;;;;5014091;28;20199;-68
2024/04/08 05:16:07;;;;;;;3.80;1.67;;;;;;;;;;5021845;28;20167;-67
2024/04/08 05:18:34;;;;;;;3.25;1.92;;;;;;;;;;5017032;28;20330;-67
2024/04/08 05:21:00;;;;;;;3.08;1.45;;;;;;;;;;5016789;28;20118;-68
2024/04/08 05:23:26;;;;;;;3.03;1.77;;;;;;;;;;5009482;28;20080;-71
2024/04/08 05:25:55;;;;;;;2.97;1.33;;;;;;;;;;5020415;28;20030;-68
2024/04/08 05:28:22;;;;;;;2.72;1.20;;;;;;;;;;5011713;28;20088;-69
2024/04/08 05:30:48;;;;;;;3.15;1.17;;;;;;;;;;5015842;28;20453;-67
2024/04/08 05:33:14;;;;;;;3.17;1.63;;;;;;;;;;5007461;28;20068;-68
2024/04/08 05:35:40;;;;;;;1.90;1.17;;;;;;;;;;5011712;28;22250;-66
2024/04/08 05:38:09;;;;;;;2.95;1.50;;;;;;;;;;5016834;28;20451;-69
2024/04/08 05:40:35;;;;;;;2.60;1.15;;;;;;;;;;5017597;28;20038;-67
2024/04/08 05:43:01;;;;;;;4.32;1.50;;;;;;;;;;5018451;28;20113;-67
2024/04/08 05:45:28;;;;;;;6.45;1.17;;;;;;;;;;5021067;28;20056;-67
2024/04/08 05:47:54;;;;;;;2.20;1.00;;;;;;;;;;5012373;28;20021;-67
2024/04/08 05:50:20;;;;;;;4.43;1.70;;;;;;;;;;5010083;28;20329;-67
2024/04/08 05:52:46;;;;;;;2.05;1.00;;;;;;;;;;5012639;28;20056;-68
2024/04/08 05:55:12;;;;;;;2.05;0.98;;;;;;;;;;5010706;28;20041;-68
2024/04/08 05:57:37;;;;;;;2.00;1.08;;;;;;;;;;5013728;28;20034;-68
2024/04/08 06:00:04;;;;;;;2.78;1.27;;;;;;;;;;5020317;28;20048;-68
2024/04/08 06:02:30;;;;;;;2.08;1.13;;;;;;;;;;5017463;28;20437;-67
2024/04/08 06:04:56;;;;;;;1.23;0.85;;;;;;;;;;5026410;28;20037;-67
2024/04/08 06:07:22;;;;;;;2.20;0.70;;;;;;;;;;5017586;28;20037;-66
2024/04/08 06:09:48;;;;;;;2.58;1.10;;;;;;;;;;5013397;28;20422;-67
2024/04/08 06:12:14;;;;;;;2.00;0.82;;;;;;;;;;5015222;28;20029;-67
2024/04/08 06:14:40;;;;;;;2.58;1.00;;;;;;;;;;5012791;28;20034;-67
2024/04/08 06:17:06;;;;;;;1.85;1.02;;;;;;;;;;5014627;28;20484;-67
2024/04/08 06:19:32;;;;;;;2.42;0.88;;;;;;;;;;5016940;28;20045;-67
2024/04/08 06:21:58;;;;;;;2.10;0.98;;;;;;;;;;5014671;28;20062;-66
2024/04/08 06:24:24;;;;;;;2.58;0.90;;;;;;;;;;5012599;28;20037;-67
2024/04/08 06:26:50;;;;;;;1.00;0.80;;;;;;;;;;5020855;28;20018;-66
2024/04/08 06:29:16;;;;;;;0.90;0.68;;;;;;;;;;5017414;28;20036;-66
2024/04/08 06:31:42;;;;;;;2.63;0.70;;;;;;;;;;5015719;28;20022;-66
2024/04/08 06:34:08;;;;;;;5.38;1.27;;;;;;;;;;5010508;28;20136;-66
2024/04/08 06:36:35;;;;;;;1.80;0.82;;;;;;;;;;5018746;28;20044;-67
2024/04/08 06:39:01;;;;;;;1.20;0.90;;;;;;;;;;5009395;28;20033;-67
2024/04/08 06:41:27;;;;;;;1.52;0.80;;;;;;;;;;5017591;28;20093;-67
2024/04/08 06:43:53;;;;;;;2.28;1.02;;;;;;;;;;5020225;28;20029;-66
2024/04/08 06:46:19;;;;;;;3.80;0.93;;;;;;;;;;5012545;28;20062;-68
2024/04/08 06:48:45;;;;;;;1.45;0.90;;;;;;;;;;5016424;28;20474;-67
2024/04/08 06:51:10;;;;;;;1.05;0.68;;;;;;;;;;5014098;28;20029;-65
2024/04/08 06:53:36;;;;;;;2.85;0.75;;;;;;;;;;5007120;28;20044;-66
2024/04/08 06:56:04;;;;;;;1.45;0.73;;;;;;;;;;5017133;28;20029;-67
2024/04/08 06:58:30;;;;;;;0.60;0.40;;;;;;;;;;5017066;28;20022;-66
2024/04/08 07:00:56;;;;;;;1.40;0.73;;;;;;;;;;5021195;28;20040;-67
2024/04/08 07:03:22;;;;;;;1.60;0.70;;;;;;;;;;5015430;28;20046;-67
2024/04/08 07:05:48;;;;;;;1.40;0.60;;;;;;;;;;5017643;28;20461;-67
2024/04/08 07:08:16;;;;;;;2.65;0.80;;;;;;;;;;5017051;28;20036;-69
2024/04/08 07:10:44;;;;;;;0.93;0.73;;;;;;;;;;5037507;28;20220;-69
2024/04/08 07:13:10;;;;;;;3.45;1.02;;;;;;;;;;5012645;28;20099;-70
2024/04/08 07:15:36;;;;;;;0.82;0.52;;;;;;;;;;5016467;28;20113;-73
2024/04/08 07:18:02;;;;;;;0.47;0.40;;;;;;;;;;5010290;28;20434;-70
2024/04/08 07:20:29;;;;;;;1.10;0.47;;;;;;;;;;5023584;28;20402;-72
2024/04/08 07:22:55;;;;;;;0.80;0.50;;;;;;;;;;5018093;28;20060;-73
2024/04/08 07:25:21;;;;;;;0.47;0.38;;;;;;;;;;5016932;28;20065;-70
2024/04/08 07:27:47;;;;;;;1.17;0.55;;;;;;;;;;5013269;28;20064;-71
2024/04/08 07:30:13;;;;;;;2.08;0.45;;;;;;;;;;5009719;28;20117;-70
2024/04/08 07:32:39;;;;;;;0.55;0.35;;;;;;;;;;5018436;28;20363;-71
2024/04/08 07:35:05;;;;;;;1.83;0.40;;;;;;;;;;5018044;28;20034;-70
2024/04/08 07:37:32;;;;;;;0.68;0.30;;;;;;;;;;5024361;28;20518;-71
2024/04/08 07:39:58;;;;;;;0.88;0.40;;;;;;;;;;5015463;28;20174;-70
2024/04/08 07:42:24;;;;;;;1.50;0.38;;;;;;;;;;5013553;28;20065;-73
2024/04/08 07:44:51;;;;;;;3.30;0.52;;;;;;;;;;5018218;28;20498;-69
2024/04/08 07:47:17;;;;;;;2.40;0.60;;;;;;;;;;5013237;28;20474;-69
2024/04/08 07:49:46;;;;;;;0.57;0.40;;;;;;;;;;5012977;28;20030;-68
2024/04/08 07:52:13;;;;;;;0.47;0.20;;;;;;;;;;5016136;28;20245;-69
2024/04/08 07:54:39;;;;;;;0.63;0.40;;;;;;;;;;5018597;28;20344;-68
2024/04/08 07:57:06;;;;;;;1.23;0.40;;;;;;;;;;5017390;28;20033;-67
2024/04/08 07:59:32;;;;;;;0.17;0.17;;;;;;;;;;5011938;28;20032;-67
2024/04/08 08:01:58;;;;;;;1.80;0.45;;;;;;;;;;5015668;28;20129;-68
2024/04/08 08:04:24;;;;;;;1.38;0.20;;;;;;;;;;5022471;28;20098;-68
2024/04/08 08:08:10;;;;;;;2.70;0.55;;;;;;;;;;5394672;26;20323;-67
2024/04/08 08:10:36;;;;;;;0.95;0.38;;;;;;;;;;5370187;26;20004;-66
2024/04/08 08:13:02;;;;;;;0.93;0.50;;;;;;;;;;5378899;26;20000;-67
2024/04/08 08:15:28;;;;;;;0.40;0.40;;;;;;;;;;5373556;26;20000;-67
2024/04/08 08:17:54;;;;;;;1.77;0.50;;;;;;;;;;5382606;26;20197;-67
2024/04/08 08:20:21;;;;;;;0.52;0.40;;;;;;;;;;5377544;26;20004;-70
2024/04/08 08:22:47;;;;;;;0.22;0.20;;;;;;;;;;5363994;26;20003;-68
2024/04/08 08:25:13;;;;;;;0.30;0.30;;;;;;;;;;5383738;26;20019;-68
2024/04/08 08:27:38;;;;;;;1.15;0.20;;;;;;;;;;5363940;26;20075;-68
2024/04/08 08:30:05;;;;;;;1.45;0.50;;;;;;;;;;5372321;26;20440;-68
2024/04/08 08:32:31;;;;;;;0.17;0.10;;;;;;;;;;5368883;26;20009;-68
2024/04/08 08:34:56;;;;;;;2.35;0.60;;;;;;;;;;5378103;26;20001;-68
2024/04/08 08:37:22;;;;;;;0.50;0.40;;;;;;;;;;5356522;26;20100;-68
2024/04/08 08:39:50;;;;;;;0.30;0.25;;;;;;;;;;5361020;26;19999;-68
2024/04/08 08:42:19;;;;;;;0.38;0.30;;;;;;;;;;5373233;26;20012;-68
2024/04/08 08:44:48;;;;;;;2.58;0.50;;;;;;;;;;5355011;26;20427;-70
2024/04/08 08:47:14;;;;;;;0.70;0.55;;;;;;;;;;5372591;26;20012;-68
2024/04/08 08:49:42;;;;;;;1.75;0.52;;;;;;;;;;5373740;26;20108;-67
2024/04/08 08:52:10;;;;;;;0.95;0.30;;;;;;;;;;5368965;26;19997;-68
2024/04/08 08:54:36;;;;;;;0.55;0.28;;;;;;;;;;5380186;26;19996;-67
2024/04/08 08:57:02;;;;;;;0.32;0.20;;;;;;;;;;5378954;26;20023;-68
2024/04/08 08:59:29;;;;;;;0.63;0.20;;;;;;;;;;5363281;26;19996;-67
2024/04/08 09:01:58;;;;;;;0.20;0.20;;;;;;;;;;5363487;26;20012;-68
2024/04/08 09:04:24;;;;;;;0.65;0.30;;;;;;;;;;5368371;26;20084;-67
2024/04/08 09:06:53;;;;;;;0.98;0.52;;;;;;;;;;5376135;26;20032;-68
2024/04/08 09:09:19;;;;;;;1.75;0.43;;;;;;;;;;5373356;26;20008;-69
2024/04/08 09:11:46;;;;;;;3.70;0.77;;;;;;;;;;5360967;26;20015;-68
2024/04/08 09:14:12;;;;;;;1.33;0.60;;;;;;;;;;5376900;26;20004;-68
2024/04/08 09:16:38;;;;;;;1.40;0.45;;;;;;;;;;5379280;26;20010;-69
2024/04/08 09:19:04;;;;;;;0.82;0.38;;;;;;;;;;5355769;26;19997;-69
2024/04/08 09:21:30;;;;;;;0.65;0.28;;;;;;;;;;5345685;26;20012;-68
2024/04/08 09:24:06;;;;;;;0.52;0.30;;;;;;;;;;5359589;26;20423;-68
2024/04/08 09:26:32;;;;;;;0.75;0.45;;;;;;;;;;5342099;26;19996;-69
2024/04/08 09:28:58;;;;;;;1.30;0.38;;;;;;;;;;5361912;26;20004;-69
2024/04/08 09:31:25;;;;;;;1.08;0.30;;;;;;;;;;5349638;26;20335;-69
2024/04/08 09:33:51;;;;;;;0.73;0.40;;;;;;;;;;5364959;26;20092;-71
2024/04/08 09:36:17;;;;;;;0.47;0.32;;;;;;;;;;5360382;26;20036;-68
2024/04/08 09:38:44;;;;;;;1.10;0.30;;;;;;;;;;5348742;26;20306;-74
2024/04/08 09:41:12;;;;;;;0.38;0.13;;;;;;;;;;5351961;26;20011;-69
2024/04/08 09:43:39;;;;;;;1.00;0.30;;;;;;;;;;5354900;26;20023;-69
2024/04/08 09:46:05;;;;;;;0.90;0.40;;;;;;;;;;5354742;26;19997;-70
2024/04/08 09:48:32;;;;;;;0.20;0.20;;;;;;;;;;5362522;26;20003;-70
2024/04/08 09:50:58;;;;;;;1.27;0.40;;;;;;;;;;5358136;26;20412;-68
2024/04/08 09:53:24;;;;;;;1.60;0.50;;;;;;;;;;5360947;26;20000;-69
2024/04/08 09:55:53;;;;;;;0.28;0.20;;;;;;;;;;5361948;26;20402;-68
2024/04/08 09:58:22;;;;;;;0.82;0.30;;;;;;;;;;5365312;26;20015;-69
2024/04/08 10:00:48;;;;;;;1.05;0.35;;;;;;;;;;5365009;26;20021;-67
2024/04/08 10:03:15;;;;;;;0.90;0.30;;;;;;;;;;5358266;26;20005;-68
2024/04/08 10:05:41;;;;;;;1.30;0.45;;;;;;;;;;5354977;26;20449;-68
2024/04/08 10:08:08;;;;;;;2.67;0.65;;;;;;;;;;5348486;26;20044;-71
2024/04/08 10:10:34;;;;;;;0.47;0.20;;;;;;;;;;5355411;26;20000;-69
2024/04/08 10:13:01;;;;;;;0.60;0.28;;;;;;;;;;5342638;26;20394;-67
2024/04/08 10:15:31;;;;;;;3.03;0.28;;;;;;;;;;5343328;26;20325;-67
2024/04/08 10:17:57;;;;;;;0.87;0.40;;;;;;;;;;5368700;26;20012;-67
2024/04/08 10:20:24;;;;;;;1.90;0.40;;;;;;;;;;5357575;26;19997;-67
2024/04/08 10:22:50;;;;;;;0.50;0.28;;;;;;;;;;5359159;26;20365;-66
2024/04/08 10:25:34;;;;;;;1.33;0.20;;;;;;;;;;5364955;26;20120;-67
2024/04/08 10:28:04;;;;;;;0.45;0.28;;;;;;;;;;5342359;26;20007;-68
2024/04/08 10:30:31;;;;;;;1.05;0.57;;;;;;;;;;5341008;26;20001;-67
2024/04/08 10:32:57;;;;;;;1.05;0.30;;;;;;;;;;5353799;26;20139;-67
2024/04/08 10:35:23;;;;;;;0.70;0.35;;;;;;;;;;5361799;26;20397;-67
2024/04/08 10:37:50;;;;;;;0.80;0.40;;;;;;;;;;5349374;26;20031;-67
2024/04/08 10:40:17;;;;;;;0.55;0.30;;;;;;;;;;5358010;26;20004;-68
2024/04/08 10:42:43;;;;;;;0.45;0.20;;;;;;;;;;5349147;26;20015;-67
2024/04/08 10:45:09;;;;;;;0.38;0.30;;;;;;;;;;5351221;26;20001;-67
2024/04/08 10:47:34;;;;;;;1.23;0.30;;;;;;;;;;5346632;26;20329;-67
2024/04/08 10:50:00;;;;;;;2.72;0.40;;;;;;;;;;5368410;26;20001;-67
2024/04/08 10:52:32;;;;;;;1.13;0.35;;;;;;;;;;5359134;26;20015;-69
2024/04/08 10:54:58;;;;;;;0.63;0.30;;;;;;;;;;5348728;26;20024;-68
2024/04/08 10:57:26;;;;;;;1.23;0.68;;;;;;;;;;5353422;26;20409;-67
2024/04/08 10:59:52;;;;;;;0.65;0.20;;;;;;;;;;5363196;26;21464;-67
2024/04/08 11:02:18;;;;;;;0.50;0.38;;;;;;;;;;5351282;26;20071;-67
2024/04/08 11:04:45;;;;;;;0.60;0.40;;;;;;;;;;5358665;26;20000;-67
2024/04/08 11:07:11;;;;;;;1.75;0.28;;;;;;;;;;5357571;26;20005;-67
2024/04/08 11:09:37;;;;;;;1.13;0.32;;;;;;;;;;5351629;26;20011;-67
2024/04/08 11:12:06;;;;;;;1.35;0.25;;;;;;;;;;5353066;26;20004;-68
2024/04/08 11:14:32;;;;;;;0.10;0.10;;;;;;;;;;5349648;26;20004;-67
2024/04/08 11:17:01;;;;;;;2.17;0.45;;;;;;;;;;5360784;26;20096;-68
2024/04/08 11:19:28;;;;;;;0.60;0.30;;;;;;;;;;5364260;26;20128;-67
2024/04/08 11:21:54;;;;;;;1.10;0.20;;;;;;;;;;5365218;26;20004;-67
2024/04/08 11:24:20;;;;;;;0.68;0.45;;;;;;;;;;5343416;26;20001;-67
2024/04/08 11:26:46;;;;;;;1.40;0.50;;;;;;;;;;5344096;26;20024;-67
2024/04/08 11:29:12;;;;;;;1.55;0.57;;;;;;;;;;5356391;26;20004;-70
2024/04/08 11:31:38;;;;;;;1.58;0.30;;;;;;;;;;5377516;26;20304;-67
2024/04/08 11:34:04;;;;;;;1.02;0.30;;;;;;;;;;5365799;26;20015;-67
2024/04/08 11:36:30;;;;;;;1.17;0.63;;;;;;;;;;5349296;26;20009;-68
2024/04/08 11:38:56;;;;;;;1.08;0.35;;;;;;;;;;5349678;26;20025;-67
2024/04/08 11:41:22;;;;;;;1.85;0.50;;;;;;;;;;5355434;26;20015;-67
2024/04/08 11:43:48;;;;;;;0.40;0.32;;;;;;;;;;5347296;26;20008;-67
2024/04/08 11:46:14;;;;;;;0.60;0.32;;;;;;;;;;5348725;26;20005;-67
2024/04/08 11:48:41;;;;;;;1.80;0.40;;;;;;;;;;5344018;26;20001;-67
2024/04/08 11:51:07;;;;;;;1.52;0.40;;;;;;;;;;5350433;26;20016;-67
2024/04/08 11:53:33;;;;;;;1.67;0.40;;;;;;;;;;5339643;26;20388;-67
2024/04/08 11:56:00;;;;;;;0.45;0.40;;;;;;;;;;5354540;26;20004;-67
2024/04/08 11:58:26;;;;;;;0.68;0.20;;;;;;;;;;5346253;26;20007;-69
2024/04/08 12:00:52;;;;;;;3.38;0.82;;;;;;;;;;5348152;26;20422;-67
2024/04/08 12:03:18;;;;;;;2.35;0.45;;;;;;;;;;5351020;26;20011;-67
2024/04/08 12:05:44;;;;;;;1.55;0.40;;;;;;;;;;5357950;26;20041;-68
2024/04/08 12:08:10;;;;;;;1.65;0.40;;;;;;;;;;5357517;26;20019;-68
2024/04/08 12:10:36;;;;;;;1.67;0.30;;;;;;;;;;5348273;26;20019;-67
2024/04/08 12:13:19;;;;;;;2.70;0.40;;;;;;;;;;5348894;26;20004;-67
2024/04/08 12:15:45;;;;;;;1.17;0.47;;;;;;;;;;5351469;26;20078;-67
2024/04/08 12:18:11;;;;;;;0.40;0.20;;;;;;;;;;5340052;26;20015;-67
2024/04/08 12:20:37;;;;;;;2.30;0.50;;;;;;;;;;5358257;26;20074;-68
2024/04/08 12:23:03;;;;;;;0.88;0.38;;;;;;;;;;5359965;26;20009;-67
2024/04/08 12:25:29;;;;;;;1.45;0.60;;;;;;;;;;5345590;26;20436;-68
2024/04/08 12:27:55;;;;;;;1.42;0.50;;;;;;;;;;5338617;26;20005;-67
2024/04/08 12:30:20;;;;;;;1.95;0.40;;;;;;;;;;5352749;26;20052;-67
2024/04/08 12:32:46;;;;;;;1.13;0.30;;;;;;;;;;5344335;26;20328;-70
2024/04/08 12:35:12;;;;;;;1.58;0.45;;;;;;;;;;5346813;26;20001;-67
2024/04/08 12:37:38;;;;;;;3.78;0.43;;;;;;;;;;5342854;26;20169;-67
2024/04/08 12:40:04;;;;;;;0.45;0.17;;;;;;;;;;5340668;26;20019;-67
2024/04/08 12:42:30;;;;;;;2.53;0.65;;;;;;;;;;5357493;26;20115;-67
2024/04/08 12:44:56;;;;;;;1.85;0.38;;;;;;;;;;5356436;26;20410;-68
2024/04/08 12:47:22;;;;;;;2.40;0.35;;;;;;;;;;5351363;26;20102;-67
2024/04/08 12:49:48;;;;;;;1.35;0.43;;;;;;;;;;5348397;26;20009;-67
2024/04/08 12:52:14;;;;;;;1.48;0.47;;;;;;;;;;5343878;26;20012;-67
2024/04/08 12:54:40;;;;;;;3.75;0.47;;;;;;;;;;5349709;26;19992;-69
2024/04/08 12:57:06;;;;;;;3.88;0.65;;;;;;;;;;5370227;26;20015;-67
2024/04/08 12:59:33;;;;;;;1.80;0.40;;;;;;;;;;5357595;26;20142;-67
2024/04/08 13:01:59;;;;;;;0.90;0.30;;;;;;;;;;5355994;26;20004;-68
2024/04/08 13:04:24;;;;;;;1.75;0.50;;;;;;;;;;5363053;26;20073;-67
2024/04/08 13:06:50;;;;;;;1.27;0.40;;;;;;;;;;5360589;26;20069;-68
2024/04/08 13:09:16;;;;;;;1.40;0.38;;;;;;;;;;5346700;26;20036;-68
2024/04/08 13:11:42;;;;;;;0.60;0.30;;;;;;;;;;5340558;26;20351;-67
2024/04/08 13:14:08;;;;;;;1.08;0.52;;;;;;;;;;5356197;26;20007;-69
2024/04/08 13:16:34;;;;;;;1.90;0.40;;;;;;;;;;5359934;26;20073;-67
2024/04/08 13:19:00;;;;;;;1.20;0.40;;;;;;;;;;5343501;26;20284;-67
2024/04/08 13:21:26;;;;;;;3.50;0.40;;;;;;;;;;5350098;26;20031;-67
2024/04/08 13:23:52;;;;;;;2.13;0.60;;;;;;;;;;5348565;26;20399;-67
2024/04/08 13:26:18;;;;;;;1.50;0.40;;;;;;;;;;5362284;26;20313;-67
2024/04/08 13:28:44;;;;;;;1.10;0.68;;;;;;;;;;5351271;26;20033;-66
2024/04/08 13:31:10;;;;;;;3.08;0.77;;;;;;;;;;5343811;26;20422;-67
2024/04/08 13:33:36;;;;;;;3.63;0.70;;;;;;;;;;5356384;26;20103;-66
2024/04/08 13:36:09;;;;;;;0.85;0.30;;;;;;;;;;5359782;26;20007;-66
2024/04/08 13:38:35;;;;;;;2.75;0.40;;;;;;;;;;5355420;26;20001;-65
2024/04/08 13:41:01;;;;;;;0.73;0.40;;;;;;;;;;5365899;26;20375;-67
2024/04/08 13:43:27;;;;;;;1.42;0.60;;;;;;;;;;5354212;26;20008;-66
2024/04/08 13:45:56;;;;;;;1.17;0.40;;;;;;;;;;5348889;26;20014;-67
2024/04/08 13:48:21;;;;;;;2.38;0.47;;;;;;;;;;5310470;26;20008;-66
2024/04/08 13:50:47;;;;;;;1.35;0.38;;;;;;;;;;5356687;26;20074;-67
2024/04/08 13:53:13;;;;;;;2.35;0.73;;;;;;;;;;5360433;26;20096;-67
2024/04/08 13:55:40;;;;;;;3.28;0.40;;;;;;;;;;5358163;26;20000;-66
2024/04/08 13:58:06;;;;;;;2.25;0.60;;;;;;;;;;5349652;26;20456;-67
2024/04/08 14:00:32;;;;;;;2.28;0.70;;;;;;;;;;5355813;26;20136;-67
2024/04/08 14:02:58;;;;;;;1.40;0.70;;;;;;;;;;5349803;26;20019;-66
2024/04/08 14:05:24;;;;;;;1.25;0.40;;;;;;;;;;5368824;26;19993;-66
2024/04/08 14:07:50;;;;;;;1.65;0.20;;;;;;;;;;5354406;26;20054;-67
2024/04/08 14:10:16;;;;;;;1.20;0.40;;;;;;;;;;5361492;26;19996;-67
2024/04/08 14:12:42;;;;;;;0.60;0.22;;;;;;;;;;5364441;26;20019;-67
2024/04/08 14:15:08;;;;;;;2.05;0.25;;;;;;;;;;5353327;26;20111;-68
2024/04/08 14:17:34;;;;;;;1.65;0.52;;;;;;;;;;5356701;26;20141;-67
2024/04/08 14:20:00;;;;;;;0.93;0.47;;;;;;;;;;5356339;26;20149;-67
2024/04/08 14:22:27;;;;;;;2.80;0.45;;;;;;;;;;5354241;26;20028;-67
2024/04/08 14:24:52;;;;;;;2.20;0.50;;;;;;;;;;5351049;26;20005;-67
2024/04/08 14:27:18;;;;;;;0.77;0.45;;;;;;;;;;5342991;26;20015;-67
2024/04/08 14:29:44;;;;;;;3.72;0.52;;;;;;;;;;5353794;26;20139;-67
2024/04/08 14:32:10;;;;;;;2.42;0.68;;;;;;;;;;5360656;26;20016;-67
2024/04/08 14:34:36;;;;;;;1.48;0.30;;;;;;;;;;5357053;26;20150;-67
2024/04/08 14:37:02;;;;;;;1.73;0.47;;;;;;;;;;5358710;26;20016;-67
2024/04/08 14:39:28;;;;;;;1.23;0.32;;;;;;;;;;5358546;26;20334;-66